Terminal Aerodrome Forecast
Issued by NWS

Home | Current Version | Previous Version | Text Only | Print | Product List | Glossary On
Versions: 1 2 3 4 5 6 7 8 9 10 11 12 13 14 15
000
FTUS44 KSJT 202322
TAFJCT
TAF
KJCT 202322Z 2100/2124 18010KT P6SM SCT040
     FM210900 17005KT P6SM BKN015
     FM212100 19011G17KT P6SM BKN040=

USA.gov is the U.S. government's official web portal to all federal, state and local government web resources and services.